createdAt,value
2023-02-19T00:03:52.597Z,20.83
2023-02-19T00:08:55.577Z,22.75
2023-02-19T00:13:59.699Z,22.20
2023-02-19T00:19:05.281Z,22.65
2023-02-19T00:24:08.818Z,15.68
2023-02-19T00:29:16.852Z,19.70
2023-02-19T00:34:19.629Z,23.60
2023-02-19T00:39:22.522Z,13.48
2023-02-19T00:44:25.311Z,20.38
2023-02-19T00:49:27.904Z,19.27
2023-02-19T00:54:31.869Z,17.75
2023-02-19T00:59:34.731Z,19.20
2023-02-19T01:04:37.748Z,19.48
2023-02-19T01:09:40.822Z,20.15
2023-02-19T01:14:43.528Z,17.08
2023-02-19T01:19:46.315Z,16.50
2023-02-19T01:24:48.887Z,17.77
2023-02-19T01:29:51.639Z,19.00
2023-02-19T01:34:54.339Z,17.63
2023-02-19T01:39:57.040Z,22.45
2023-02-19T01:45:32.358Z,26.23
2023-02-19T01:50:39.749Z,23.02
2023-02-19T01:55:43.440Z,23.15
2023-02-19T02:00:46.221Z,17.63
2023-02-19T02:06:02.519Z,15.10
2023-02-19T02:11:05.416Z,19.67
2023-02-19T02:16:23.313Z,21.17
2023-02-19T02:21:41.014Z,24.15
2023-02-19T02:27:04.784Z,15.02
2023-02-19T02:32:13.516Z,18.50
2023-02-19T02:37:17.038Z,16.02
2023-02-19T02:42:28.598Z,19.40
2023-02-19T02:47:51.749Z,16.40
2023-02-19T02:53:19.750Z,15.07
2023-02-19T02:58:25.067Z,16.50
2023-02-19T03:03:31.834Z,16.08
2023-02-19T03:08:41.707Z,17.13
2023-02-19T03:14:02.806Z,21.70
2023-02-19T03:19:21.737Z,16.67
2023-02-19T03:24:50.283Z,18.35
2023-02-19T03:29:55.891Z,19.08
2023-02-19T03:35:23.572Z,17.63
2023-02-19T03:40:30.383Z,20.05
2023-02-19T03:46:02.459Z,13.65
2023-02-19T03:51:14.189Z,20.52
2023-02-19T03:56:23.049Z,16.45
2023-02-19T04:01:36.123Z,18.20
2023-02-19T04:06:40.408Z,16.55
2023-02-19T04:11:43.383Z,15.35
2023-02-19T04:16:49.990Z,15.75
2023-02-19T04:21:53.730Z,13.93
2023-02-19T04:26:56.614Z,12.90
2023-02-19T04:31:59.305Z,16.05
2023-02-19T04:37:02.055Z,16.02
2023-02-19T04:42:05.098Z,16.73
2023-02-19T04:47:07.839Z,15.10
2023-02-19T04:52:10.927Z,10.27
2023-02-19T04:57:13.666Z,17.50
2023-02-19T05:02:16.420Z,13.10
2023-02-19T05:07:19.142Z,9.27
2023-02-19T05:12:21.926Z,9.75
2023-02-19T05:17:24.740Z,12.80
2023-02-19T05:22:30.102Z,11.20
2023-02-19T05:27:33.960Z,9.63
2023-02-19T05:32:36.727Z,10.83
2023-02-19T05:37:39.411Z,10.68
2023-02-19T05:42:42.231Z,11.57
2023-02-19T05:47:44.888Z,12.65
2023-02-19T05:52:47.732Z,14.00
2023-02-19T05:57:50.478Z,10.32
2023-02-19T06:02:54.208Z,11.23
2023-02-19T06:07:58.483Z,10.68
2023-02-19T06:13:04.215Z,10.07
2023-02-19T06:18:06.962Z,11.48
2023-02-19T06:23:09.807Z,14.20
2023-02-19T06:28:12.483Z,12.07
2023-02-19T06:33:15.186Z,11.88
2023-02-19T06:38:24.031Z,11.38
2023-02-19T06:43:26.688Z,10.90
2023-02-19T06:48:30.828Z,11.50
2023-02-19T06:53:33.571Z,11.13
2023-02-19T06:58:36.380Z,11.15
2023-02-19T07:03:39.073Z,11.18
2023-02-19T07:08:41.738Z,9.38
2023-02-19T07:13:44.536Z,9.02
2023-02-19T07:18:47.284Z,10.52
2023-02-19T07:23:49.997Z,9.85
2023-02-19T07:28:53.321Z,12.13
2023-02-19T07:33:56.299Z,10.35
2023-02-19T07:39:01.283Z,12.00
2023-02-19T07:44:04.298Z,12.23
2023-02-19T07:49:07.553Z,10.10
2023-02-19T07:54:10.550Z,9.10
2023-02-19T07:59:13.277Z,11.13
2023-02-19T08:04:16.036Z,9.82
2023-02-19T08:09:18.810Z,11.18
2023-02-19T08:14:32.814Z,12.02
2023-02-19T08:19:35.484Z,11.40
2023-02-19T08:24:43.239Z,9.85
2023-02-19T08:29:45.887Z,11.75
2023-02-19T08:34:48.592Z,11.10
2023-02-19T08:39:51.289Z,12.18
2023-02-19T08:44:54.057Z,9.75
2023-02-19T08:49:56.771Z,9.25
2023-02-19T08:55:02.799Z,12.60
2023-02-19T09:00:07.210Z,9.40
2023-02-19T09:05:11.935Z,11.10
2023-02-19T09:10:15.394Z,9.40
2023-02-19T09:15:18.545Z,8.70
2023-02-19T09:25:29.529Z,10.02
2023-02-19T09:30:38.555Z,8.55
2023-02-19T09:35:41.239Z,9.25
2023-02-19T09:40:54.667Z,9.40
2023-02-19T09:46:07.370Z,9.15
2023-02-19T09:51:11.284Z,9.77
2023-02-19T09:56:14.114Z,11.27
2023-02-19T10:01:17.420Z,9.82
2023-02-19T10:06:32.563Z,8.90
2023-02-19T10:11:35.719Z,9.38
2023-02-19T10:16:43.023Z,8.70
2023-02-19T10:21:45.832Z,10.55
2023-02-19T10:26:49.586Z,9.93
2023-02-19T10:32:17.478Z,10.97
2023-02-19T10:37:20.266Z,11.18
2023-02-19T10:42:23.774Z,9.52
2023-02-19T10:47:27.945Z,12.15
2023-02-19T10:52:34.686Z,8.25
2023-02-19T10:57:38.191Z,8.13
2023-02-19T11:02:40.894Z,8.40
2023-02-19T11:07:52.579Z,9.57
2023-02-19T11:12:57.984Z,10.85
2023-02-19T11:18:26.855Z,10.95
2023-02-19T11:23:44.671Z,9.23
2023-02-19T11:28:57.004Z,9.68
2023-02-19T11:34:02.055Z,9.52
2023-02-19T11:39:10.757Z,9.10
2023-02-19T11:44:36.312Z,8.93
2023-02-19T11:49:50.419Z,8.63
2023-02-19T11:54:59.196Z,8.25
2023-02-19T12:00:04.770Z,9.20
2023-02-19T12:05:18.033Z,10.18
2023-02-19T12:10:35.917Z,6.78
2023-02-19T12:15:47.964Z,9.00
2023-02-19T12:21:02.849Z,9.43
2023-02-19T12:26:22.746Z,8.38
2023-02-19T12:31:55.304Z,10.23
2023-02-19T12:37:11.191Z,10.18
2023-02-19T12:42:37.698Z,9.35
2023-02-19T12:47:41.859Z,8.07
2023-02-19T12:57:47.674Z,8.88
2023-02-19T13:02:51.252Z,9.13
2023-02-19T13:08:04.735Z,9.97
2023-02-19T13:13:19.598Z,8.10
2023-02-19T13:18:30.731Z,10.48
2023-02-19T13:23:57.796Z,10.13
2023-02-19T13:29:11.729Z,9.55
2023-02-19T13:34:38.560Z,8.75
2023-02-19T13:39:54.744Z,9.43
2023-02-19T13:44:58.853Z,7.63
2023-02-19T13:50:19.876Z,10.32
2023-02-19T13:55:44.700Z,9.23
2023-02-19T14:00:50.178Z,8.80
2023-02-19T14:06:17.282Z,8.50
2023-02-19T14:11:46.652Z,10.40
2023-02-19T14:16:52.462Z,9.27
2023-02-19T14:21:55.272Z,9.50
2023-02-19T14:26:58.141Z,10.32
2023-02-19T14:32:05.647Z,6.90
2023-02-19T14:37:19.023Z,8.20
2023-02-19T14:42:34.486Z,8.97
2023-02-19T14:47:37.721Z,8.25
2023-02-19T14:52:50.453Z,8.63
2023-02-19T14:57:55.995Z,9.43
2023-02-19T15:03:00.116Z,8.55
2023-02-19T15:08:09.576Z,9.80
2023-02-19T15:13:17.849Z,10.60
2023-02-19T15:18:22.469Z,10.43
2023-02-19T15:23:25.989Z,8.90
2023-02-19T15:28:32.901Z,9.75
2023-02-19T15:33:35.714Z,9.88
2023-02-19T15:38:38.539Z,10.18
2023-02-19T15:43:51.114Z,9.40
2023-02-19T15:48:54.069Z,8.75
2023-02-19T15:53:59.941Z,10.32
2023-02-19T15:59:13.991Z,11.20
2023-02-19T16:09:22.593Z,9.00
2023-02-19T16:14:33.712Z,9.93
2023-02-19T16:19:58.274Z,10.73
2023-02-19T16:25:05.843Z,9.60
2023-02-19T16:30:17.728Z,9.60
2023-02-19T16:35:37.793Z,11.45
2023-02-19T16:40:43.570Z,9.73
2023-02-19T16:45:47.057Z,8.77
2023-02-19T16:50:49.825Z,8.40
2023-02-19T16:55:52.881Z,9.93
2023-02-19T17:00:56.582Z,8.35
2023-02-19T17:05:59.265Z,9.82
2023-02-19T17:11:04.043Z,9.05
2023-02-19T17:16:06.995Z,11.00
2023-02-19T17:21:15.725Z,10.23
2023-02-19T17:26:21.604Z,9.50
2023-02-19T17:31:24.575Z,9.82
2023-02-19T17:36:32.156Z,11.40
2023-02-19T17:41:34.913Z,12.63
2023-02-19T17:46:38.214Z,10.82
2023-02-19T17:51:40.874Z,8.90
2023-02-19T17:56:46.376Z,10.25
2023-02-19T18:01:49.272Z,9.27
2023-02-19T18:06:54.771Z,10.75
2023-02-19T18:11:57.600Z,12.02
2023-02-19T18:17:00.497Z,8.63
2023-02-19T18:22:04.731Z,10.40
2023-02-19T18:27:09.015Z,10.90
2023-02-19T18:32:11.667Z,11.32
2023-02-19T18:37:14.613Z,11.57
2023-02-19T18:42:17.496Z,9.07
2023-02-19T18:47:22.039Z,11.40
2023-02-19T18:52:26.573Z,12.00
2023-02-19T18:57:29.398Z,11.23
2023-02-19T19:02:42.898Z,9.07
2023-02-19T19:07:55.754Z,9.98
2023-02-19T19:12:58.900Z,9.48
2023-02-19T19:18:03.083Z,10.80
2023-02-19T19:23:06.705Z,12.07
2023-02-19T19:28:09.686Z,9.27
2023-02-19T19:33:14.212Z,14.70
2023-02-19T19:38:17.170Z,10.02
2023-02-19T19:43:19.805Z,9.07
2023-02-19T19:48:23.309Z,11.18
2023-02-19T19:53:26.124Z,10.80
2023-02-19T19:58:29.102Z,12.23
2023-02-19T20:03:33.659Z,9.57
2023-02-19T20:08:36.538Z,10.52
2023-02-19T20:13:39.166Z,11.30
2023-02-19T20:18:42.217Z,9.45
2023-02-19T20:23:44.988Z,12.48
2023-02-19T20:28:47.737Z,9.23
2023-02-19T20:33:51.514Z,10.55
2023-02-19T20:38:54.329Z,12.27
2023-02-19T20:43:56.997Z,10.45
2023-02-19T20:48:59.705Z,10.73
2023-02-19T20:54:02.445Z,10.32
2023-02-19T20:59:05.203Z,11.07
2023-02-19T21:04:08.201Z,10.95
2023-02-19T21:09:10.955Z,10.90
2023-02-19T21:14:13.650Z,9.90
2023-02-19T21:19:17.242Z,9.60
2023-02-19T21:24:19.846Z,8.57
2023-02-19T21:29:23.437Z,9.57
2023-02-19T21:34:28.050Z,12.25
2023-02-19T21:39:32.630Z,10.60
2023-02-19T21:44:35.431Z,10.73
2023-02-19T21:49:38.162Z,11.50
2023-02-19T21:54:40.863Z,13.48
2023-02-19T21:59:43.558Z,11.60
2023-02-19T22:04:47.254Z,11.40
2023-02-19T22:09:51.058Z,11.18
2023-02-19T22:14:53.743Z,11.63
2023-02-19T22:19:56.468Z,12.25
2023-02-19T22:24:59.158Z,8.05
2023-02-19T22:30:02.127Z,12.55
2023-02-19T22:35:06.802Z,14.30
2023-02-19T22:40:09.849Z,6.20
2023-02-19T22:45:12.719Z,10.57
2023-02-19T22:50:23.088Z,14.90
2023-02-19T22:55:25.743Z,11.15
2023-02-19T23:00:28.495Z,10.55
2023-02-19T23:05:32.671Z,11.68
2023-02-19T23:10:35.295Z,14.27
2023-02-19T23:15:38.035Z,9.85
2023-02-19T23:20:40.761Z,10.68
2023-02-19T23:25:43.537Z,11.52
2023-02-19T23:30:46.274Z,12.70
2023-02-19T23:35:48.985Z,11.80
2023-02-19T23:40:51.586Z,10.70
2023-02-19T23:45:54.325Z,12.40
2023-02-19T23:50:57.176Z,13.60
2023-02-19T23:55:59.889Z,14.35
